Local / Fort Wayne - NE Ind.

U N D E R   C O N S T R U C T I O N

Local Weather
Fort Wayne – NE Indiana

Northern Indiana (IWX) Radar

Base Reflectivity

Base Velocity

Indiana-Ohio Visible Satellite

For infrared and water vapor imagery, see Great Lakes - Midwest.

Current Conditions

Recent report from the Fort Wayne International Airport

Mar 22, 2018 - 05:54 AM EDT / 2018.03.22 0954 UTC

The skies are mostly clear. The temperature is 24.1 F (-4.4 C) and the dew point is 21.0 F (-6.1 C), giving a relative humidity of 87%. The barometric pressure is 30.21 in. Hg (1023 hPa). The wind is from the WNW (290 degrees) at 5 MPH (4 KT) creating a wind chill temperature of 17 F (-8 C), and the visibility is 10 mile(s).

KFWA 220954Z 29004KT 10SM FEW100 M04/M06 A3021 RMK AO2 SLP239 T10441061

Local Weather — Contents

Local Weather — Links

A2 Web Hosting
Creative Commons License
Look for:

loaded 2018-03-22 06:15:23 • last modified 2017-02-11 13:27:36
Privacy PolicyDisclaimer
• wx.awcolley.com is powered by PmWiki v.2002016 •
• all content (unless otherwise noted) © 2018 A W Colley